createdAt,value
2022-11-17T00:01:46.245Z,99697.14
2022-11-17T00:04:17.331Z,99697.98
2022-11-17T00:06:48.699Z,99701.35
2022-11-17T00:09:19.932Z,99697.80
2022-11-17T00:12:09.404Z,99699.17
2022-11-17T00:14:41.574Z,99700.88
2022-11-17T00:17:14.561Z,99705.27
2022-11-17T00:20:03.834Z,99708.28
2022-11-17T00:22:35.080Z,99705.16
2022-11-17T00:25:06.966Z,99702.12
2022-11-17T00:27:39.006Z,99700.45
2022-11-17T00:30:32.781Z,99705.67
2022-11-17T00:33:23.303Z,99705.36
2022-11-17T00:35:56.356Z,99707.36
2022-11-17T00:38:27.420Z,99704.83
2022-11-17T00:40:59.687Z,99709.73
2022-11-17T00:43:30.759Z,99716.50
2022-11-17T00:46:01.771Z,99712.25
2022-11-17T00:48:32.920Z,99712.05
2022-11-17T00:51:07.887Z,99713.56
2022-11-17T00:53:39.203Z,99720.30
2022-11-17T00:56:11.063Z,99716.73
2022-11-17T00:58:42.316Z,99713.86
2022-11-17T01:01:13.811Z,99716.19
2022-11-17T01:03:45.220Z,99712.15
2022-11-17T01:06:18.533Z,99709.80
2022-11-17T01:08:50.600Z,99713.52
2022-11-17T01:11:22.031Z,99711.68
2022-11-17T01:13:58.091Z,99711.20
2022-11-17T01:16:30.568Z,99712.75
2022-11-17T01:19:03.556Z,99712.09
2022-11-17T01:21:35.417Z,99719.17
2022-11-17T01:24:07.848Z,99713.38
2022-11-17T01:26:40.373Z,99706.73
2022-11-17T01:29:14.696Z,99708.24
2022-11-17T01:31:50.442Z,99714.47
2022-11-17T01:34:21.588Z,99718.98
2022-11-17T01:37:10.550Z,99716.88
2022-11-17T01:39:41.796Z,99717.82
2022-11-17T01:42:17.449Z,99726.20
2022-11-17T01:45:06.818Z,99721.58
2022-11-17T01:47:47.699Z,99713.54
2022-11-17T01:50:29.693Z,99715.67
2022-11-17T01:53:03.622Z,99713.60
2022-11-17T01:55:39.691Z,99711.53
2022-11-17T01:58:13.400Z,99712.66
2022-11-17T02:00:44.224Z,99709.07
2022-11-17T02:03:15.450Z,99714.59
2022-11-17T02:05:53.146Z,99714.05
2022-11-17T02:08:27.905Z,99709.30
2022-11-17T02:11:00.141Z,99708.82
2022-11-17T02:13:31.713Z,99710.01
2022-11-17T02:16:02.647Z,99710.33
2022-11-17T02:18:33.690Z,99704.70
2022-11-17T02:21:24.107Z,99700.77
2022-11-17T02:24:33.835Z,99701.22
2022-11-17T02:27:31.582Z,99696.43
2022-11-17T02:30:05.799Z,99695.84
2022-11-17T02:32:43.878Z,99687.76
2022-11-17T02:35:25.880Z,99692.13
2022-11-17T02:38:07.454Z,99691.14
2022-11-17T02:40:45.338Z,99690.98
2022-11-17T02:43:37.581Z,99691.64
2022-11-17T02:46:15.310Z,99695.02
2022-11-17T02:48:50.804Z,99702.92
2022-11-17T02:51:24.495Z,99695.62
2022-11-17T02:54:00.274Z,99695.45
2022-11-17T02:56:31.100Z,99692.63
2022-11-17T02:59:05.980Z,99698.88
2022-11-17T03:01:57.987Z,99691.73
2022-11-17T03:04:39.118Z,99695.77
2022-11-17T03:07:27.599Z,99697.42
2022-11-17T03:10:09.881Z,99702.46
2022-11-17T03:12:48.103Z,99697.20
2022-11-17T03:15:30.089Z,99697.99
2022-11-17T03:18:10.144Z,99695.79
2022-11-17T03:20:51.345Z,99697.83
2022-11-17T03:23:28.815Z,99701.38
2022-11-17T03:26:02.914Z,99701.18
2022-11-17T03:28:35.534Z,99699.98
2022-11-17T03:31:09.432Z,99698.20
2022-11-17T03:33:44.250Z,99693.36
2022-11-17T03:36:17.847Z,99691.23
2022-11-17T03:38:56.601Z,99694.15
2022-11-17T03:41:31.334Z,99690.13
2022-11-17T03:44:04.802Z,99692.18
2022-11-17T03:49:39.958Z,99698.54
2022-11-17T03:52:11.036Z,99701.42
2022-11-17T03:54:42.895Z,99702.12
2022-11-17T03:57:18.652Z,99701.14
2022-11-17T03:59:57.068Z,99696.82
2022-11-17T04:02:29.120Z,99693.98
2022-11-17T04:05:09.187Z,99691.15
2022-11-17T04:07:42.362Z,99688.30
2022-11-17T04:10:15.456Z,99690.20
2022-11-17T04:13:04.079Z,99689.02
2022-11-17T04:15:52.375Z,99692.20
2022-11-17T04:18:24.539Z,99690.15
2022-11-17T04:20:57.835Z,99693.52
2022-11-17T04:23:28.890Z,99691.52
2022-11-17T04:26:17.842Z,99691.02
2022-11-17T04:28:51.558Z,99693.70
2022-11-17T04:31:24.897Z,99698.63
2022-11-17T04:33:56.970Z,99700.33
2022-11-17T04:36:29.490Z,99701.04
2022-11-17T04:39:01.768Z,99701.40
2022-11-17T04:41:50.888Z,99702.60
2022-11-17T04:44:23.608Z,99693.69
2022-11-17T04:46:55.172Z,99692.65
2022-11-17T04:49:27.206Z,99697.19
2022-11-17T04:51:58.135Z,99696.67
2022-11-17T04:54:29.503Z,99705.06
2022-11-17T04:57:00.562Z,99703.68
2022-11-17T04:59:31.607Z,99704.52
2022-11-17T05:02:05.963Z,99703.03
2022-11-17T05:04:55.092Z,99698.63
2022-11-17T05:07:26.144Z,99697.48
2022-11-17T05:09:57.066Z,99699.00
2022-11-17T05:12:45.730Z,99697.48
2022-11-17T05:15:36.965Z,99701.53
2022-11-17T05:18:08.031Z,99701.20
2022-11-17T05:20:38.996Z,99702.20
2022-11-17T05:23:27.288Z,99697.48
2022-11-17T05:25:58.276Z,99701.23
2022-11-17T05:28:34.029Z,99698.04
2022-11-17T05:31:05.892Z,99697.54
2022-11-17T05:33:38.096Z,99697.90
2022-11-17T05:36:11.120Z,99694.84
2022-11-17T05:38:42.781Z,99695.84
2022-11-17T05:41:13.959Z,99689.09
2022-11-17T05:43:45.454Z,99687.93
2022-11-17T05:46:16.440Z,99691.41
2022-11-17T05:48:48.890Z,99694.42
2022-11-17T05:51:21.201Z,99696.45
2022-11-17T05:53:52.702Z,99697.98
2022-11-17T05:56:34.148Z,99696.63
2022-11-17T05:59:16.342Z,99697.80
2022-11-17T06:01:51.936Z,99702.15
2022-11-17T06:04:23.762Z,99703.48
2022-11-17T06:06:59.187Z,99704.43
2022-11-17T06:09:34.272Z,99710.62
2022-11-17T06:12:06.641Z,99706.70
2022-11-17T06:14:39.804Z,99707.55
2022-11-17T06:17:22.104Z,99714.61
2022-11-17T06:19:58.895Z,99715.80
2022-11-17T06:22:31.511Z,99711.55
2022-11-17T06:25:04.704Z,99713.72
2022-11-17T06:27:36.678Z,99717.90
2022-11-17T06:30:09.260Z,99710.13
2022-11-17T06:32:43.866Z,99712.02
2022-11-17T06:35:16.695Z,99710.34
2022-11-17T06:37:47.685Z,99715.89
2022-11-17T06:40:19.446Z,99713.52
2022-11-17T06:43:08.688Z,99720.23
2022-11-17T06:45:41.504Z,99716.67
2022-11-17T06:48:14.266Z,99721.23
2022-11-17T06:50:45.838Z,99721.77
2022-11-17T06:53:16.966Z,99720.77
2022-11-17T06:55:51.114Z,99719.90
2022-11-17T06:58:22.082Z,99718.64
2022-11-17T07:00:53.263Z,99711.48
2022-11-17T07:03:24.340Z,99712.95
2022-11-17T07:05:55.488Z,99717.66
2022-11-17T07:08:26.536Z,99721.03
2022-11-17T07:11:02.793Z,99721.55
2022-11-17T07:13:34.743Z,99730.92
2022-11-17T07:16:08.255Z,99724.41
2022-11-17T07:18:41.660Z,99727.55
2022-11-17T07:21:14.881Z,99725.11
2022-11-17T07:23:46.286Z,99724.05
2022-11-17T07:26:17.447Z,99720.95
2022-11-17T07:28:48.345Z,99723.79
2022-11-17T07:31:19.430Z,99727.13
2022-11-17T07:33:51.191Z,99728.98
2022-11-17T07:36:22.274Z,99729.30
2022-11-17T07:38:53.204Z,99729.47
2022-11-17T07:41:24.317Z,99736.44
2022-11-17T07:43:55.361Z,99736.09
2022-11-17T07:46:26.811Z,99738.29
2022-11-17T07:48:58.128Z,99739.58
2022-11-17T07:51:29.209Z,99741.95
2022-11-17T07:54:00.248Z,99750.92
2022-11-17T07:56:31.310Z,99744.52
2022-11-17T07:59:02.334Z,99747.66
2022-11-17T08:01:33.863Z,99743.43
2022-11-17T08:04:05.089Z,99749.15
2022-11-17T08:06:37.306Z,99748.43
2022-11-17T08:09:10.809Z,99747.35
2022-11-17T08:11:41.777Z,99745.42
2022-11-17T08:14:12.805Z,99751.23
2022-11-17T08:16:43.831Z,99752.19
2022-11-17T08:19:14.974Z,99747.36
2022-11-17T08:21:45.939Z,99744.10
2022-11-17T08:24:17.164Z,99742.38
2022-11-17T08:26:48.205Z,99746.08
2022-11-17T08:29:19.132Z,99739.02
2022-11-17T08:31:50.215Z,99741.57
2022-11-17T08:34:21.219Z,99745.00
2022-11-17T08:36:52.275Z,99744.15
2022-11-17T08:39:23.422Z,99744.97
2022-11-17T08:41:55.147Z,99745.13
2022-11-17T08:44:26.149Z,99739.91
2022-11-17T08:46:57.149Z,99751.98
2022-11-17T08:49:28.259Z,99749.00
2022-11-17T08:51:59.263Z,99756.25
2022-11-17T08:54:30.289Z,99748.88
2022-11-17T08:57:01.613Z,99743.98
2022-11-17T08:59:32.595Z,99744.66
2022-11-17T09:02:03.546Z,99740.08
2022-11-17T09:04:34.603Z,99741.96
2022-11-17T09:07:06.020Z,99745.23
2022-11-17T09:09:37.160Z,99741.06
2022-11-17T09:12:08.717Z,99737.30
2022-11-17T09:14:40.002Z,99738.89
2022-11-17T09:17:11.114Z,99739.63
2022-11-17T09:19:42.068Z,99737.14
2022-11-17T09:22:12.992Z,99745.45
2022-11-17T09:24:43.996Z,99738.73
2022-11-17T09:27:15.072Z,99735.57
2022-11-17T09:29:46.226Z,99736.48
2022-11-17T09:32:19.435Z,99732.67
2022-11-17T09:34:51.316Z,99732.71
2022-11-17T09:37:22.735Z,99737.80
2022-11-17T09:39:53.767Z,99734.70
2022-11-17T09:42:25.616Z,99737.83
2022-11-17T09:45:03.640Z,99728.33
2022-11-17T09:47:42.312Z,99725.05
2022-11-17T09:50:22.348Z,99722.00
2022-11-17T09:53:05.496Z,99727.55
2022-11-17T09:55:41.074Z,99725.01
2022-11-17T09:58:20.324Z,99719.11
2022-11-17T10:00:52.943Z,99723.01
2022-11-17T10:03:28.449Z,99715.24
2022-11-17T10:06:02.238Z,99710.65
2022-11-17T10:08:40.546Z,99711.98
2022-11-17T10:11:32.200Z,99709.84
2022-11-17T10:14:11.926Z,99711.77
2022-11-17T10:16:45.911Z,99706.79
2022-11-17T10:19:23.266Z,99702.21
2022-11-17T10:21:58.422Z,99697.42
2022-11-17T10:24:42.277Z,99699.61
2022-11-17T10:27:23.152Z,99701.82
2022-11-17T10:30:02.415Z,99692.44
2022-11-17T10:32:37.956Z,99695.71
2022-11-17T10:35:20.961Z,99697.95
2022-11-17T10:37:58.896Z,99706.34
2022-11-17T10:40:31.818Z,99704.75
2022-11-17T10:43:17.802Z,99698.27
2022-11-17T10:45:50.769Z,99700.94
2022-11-17T10:48:28.903Z,99701.11
2022-11-17T10:51:01.467Z,99702.45
2022-11-17T10:53:44.476Z,99698.11
2022-11-17T10:56:21.652Z,99697.16
2022-11-17T10:59:03.047Z,99695.98
2022-11-17T11:01:36.535Z,99690.93
2022-11-17T11:04:27.170Z,99691.31
2022-11-17T11:07:11.705Z,99694.38
2022-11-17T11:09:49.487Z,99694.17
2022-11-17T11:12:29.374Z,99693.66
2022-11-17T11:15:01.857Z,99688.73
2022-11-17T11:17:33.143Z,99683.33
2022-11-17T11:20:05.158Z,99685.02
2022-11-17T11:22:44.884Z,99683.17
2022-11-17T11:25:31.422Z,99682.48
2022-11-17T11:28:18.643Z,99678.81
2022-11-17T11:31:03.020Z,99682.09
2022-11-17T11:33:39.216Z,99678.73
2022-11-17T11:36:24.089Z,99675.04
2022-11-17T11:39:02.133Z,99676.38
2022-11-17T11:41:52.313Z,99672.54
2022-11-17T11:44:38.688Z,99672.80
2022-11-17T11:47:20.612Z,99672.57
2022-11-17T11:49:56.987Z,99666.21
2022-11-17T11:52:33.881Z,99666.95
2022-11-17T11:55:15.752Z,99660.95
2022-11-17T11:57:53.214Z,99665.77
2022-11-17T12:00:25.215Z,99665.86
2022-11-17T12:03:12.051Z,99663.06
2022-11-17T12:05:54.011Z,99666.53
2022-11-17T12:08:33.752Z,99665.20
2022-11-17T12:11:26.237Z,99665.57
2022-11-17T12:13:58.480Z,99662.90
2022-11-17T12:16:34.074Z,99665.79
2022-11-17T12:19:25.287Z,99663.08
2022-11-17T12:21:58.123Z,99663.71
2022-11-17T12:24:39.054Z,99664.17
2022-11-17T12:27:43.201Z,99668.63
2022-11-17T12:30:45.086Z,99670.00
2022-11-17T12:33:16.223Z,99664.61
2022-11-17T12:35:47.602Z,99662.45
2022-11-17T12:38:42.932Z,99660.31
2022-11-17T12:41:14.675Z,99658.10
2022-11-17T12:43:46.330Z,99655.88
2022-11-17T12:46:27.592Z,99654.02
2022-11-17T12:49:08.115Z,99650.98
2022-11-17T12:51:46.193Z,99645.60
2022-11-17T12:54:28.202Z,99652.33
2022-11-17T12:57:07.704Z,99646.89
2022-11-17T13:00:10.797Z,99641.64
2022-11-17T13:03:10.804Z,99637.81
2022-11-17T13:05:42.376Z,99635.39
2022-11-17T13:08:24.524Z,99629.89
2022-11-17T13:11:07.252Z,99624.71
2022-11-17T13:13:41.406Z,99627.13
2022-11-17T13:16:21.811Z,99630.05
2022-11-17T13:18:53.266Z,99632.46
2022-11-17T13:21:33.858Z,99627.45
2022-11-17T13:24:05.653Z,99625.61
2022-11-17T13:26:38.300Z,99622.77
2022-11-17T13:29:13.263Z,99624.80
2022-11-17T13:31:44.461Z,99619.09
2022-11-17T13:34:21.320Z,99622.65
2022-11-17T13:37:01.051Z,99624.01
2022-11-17T13:39:32.736Z,99628.55
2022-11-17T13:42:04.417Z,99625.98
2022-11-17T13:44:36.032Z,99619.54
2022-11-17T13:50:32.629Z,99609.55
2022-11-17T13:53:05.677Z,99614.59
2022-11-17T13:55:37.485Z,99613.25
2022-11-17T13:58:26.236Z,99619.14
2022-11-17T14:00:59.377Z,99619.42
2022-11-17T14:03:38.393Z,99623.27
2022-11-17T14:06:11.203Z,99615.60
2022-11-17T14:09:02.395Z,99614.36
2022-11-17T14:11:33.768Z,99613.66
2022-11-17T14:14:13.565Z,99616.17
2022-11-17T14:16:45.650Z,99618.88
2022-11-17T14:19:32.373Z,99614.48
2022-11-17T14:22:27.683Z,99614.46
2022-11-17T14:25:02.362Z,99613.09
2022-11-17T14:27:41.877Z,99608.65
2022-11-17T14:30:16.309Z,99608.08
2022-11-17T14:32:47.284Z,99607.65
2022-11-17T14:37:55.269Z,99607.99
2022-11-17T14:40:26.042Z,99605.38
2022-11-17T14:42:57.218Z,99608.90
2022-11-17T14:45:28.029Z,99609.35
2022-11-17T14:47:58.769Z,99613.01
2022-11-17T14:50:29.728Z,99611.26
2022-11-17T14:53:00.955Z,99614.04
2022-11-17T14:55:31.891Z,99615.83
2022-11-17T14:58:02.808Z,99612.94
2022-11-17T15:00:33.843Z,99611.36
2022-11-17T15:03:05.458Z,99617.56
2022-11-17T15:05:36.690Z,99619.70
2022-11-17T15:08:10.508Z,99616.09
2022-11-17T15:10:45.716Z,99620.59
2022-11-17T15:13:14.988Z,99616.63
2022-11-17T15:15:46.104Z,99615.02
2022-11-17T15:18:17.210Z,99609.06
2022-11-17T15:20:48.271Z,99611.20
2022-11-17T15:23:19.315Z,99614.36
2022-11-17T15:25:50.361Z,99615.82
2022-11-17T15:28:23.037Z,99613.95
2022-11-17T15:30:54.200Z,99612.05
2022-11-17T15:33:25.584Z,99607.45
2022-11-17T15:36:04.598Z,99602.70
2022-11-17T15:38:36.276Z,99599.86
2022-11-17T15:41:08.833Z,99599.50
2022-11-17T15:43:40.984Z,99596.95
2022-11-17T15:46:13.475Z,99599.95
2022-11-17T15:48:45.856Z,99595.05
2022-11-17T15:51:18.558Z,99596.39
2022-11-17T15:53:51.040Z,99595.50
2022-11-17T15:56:23.561Z,99595.80
2022-11-17T15:59:01.773Z,99601.70
2022-11-17T16:01:34.048Z,99597.16
2022-11-17T16:04:07.248Z,99597.52
2022-11-17T16:06:39.732Z,99597.34
2022-11-17T16:09:11.882Z,99607.78
2022-11-17T16:11:43.359Z,99608.98
2022-11-17T16:14:14.947Z,99608.87
2022-11-17T16:16:47.978Z,99608.59
2022-11-17T16:19:19.086Z,99610.17
2022-11-17T16:21:50.290Z,99611.75
2022-11-17T16:24:21.084Z,99609.79
2022-11-17T16:26:52.243Z,99608.88
2022-11-17T16:29:23.168Z,99612.99
2022-11-17T16:31:54.166Z,99609.73
2022-11-17T16:34:26.173Z,99608.78
2022-11-17T16:36:56.994Z,99606.13
2022-11-17T16:39:27.893Z,99597.39
2022-11-17T16:42:00.096Z,99594.89
2022-11-17T16:44:31.188Z,99599.41
2022-11-17T16:47:02.197Z,99599.77
2022-11-17T16:49:35.432Z,99597.94
2022-11-17T16:52:06.935Z,99595.78
2022-11-17T16:54:37.814Z,99596.00
2022-11-17T16:57:08.711Z,99593.37
2022-11-17T16:59:39.901Z,99589.37
2022-11-17T17:02:13.070Z,99587.70
2022-11-17T17:04:43.908Z,99584.85
2022-11-17T17:07:15.115Z,99580.13
2022-11-17T17:09:45.988Z,99581.32
2022-11-17T17:12:16.952Z,99576.94
2022-11-17T17:14:47.863Z,99577.80
2022-11-17T17:17:18.915Z,99582.71
2022-11-17T17:19:49.734Z,99582.20
2022-11-17T17:22:21.070Z,99583.72
2022-11-17T17:24:52.096Z,99583.27
2022-11-17T17:27:23.195Z,99579.59
2022-11-17T17:29:57.073Z,99576.98
2022-11-17T17:32:28.251Z,99576.38
2022-11-17T17:34:59.063Z,99574.58
2022-11-17T17:37:32.668Z,99572.27
2022-11-17T17:40:04.126Z,99563.20
2022-11-17T17:42:35.027Z,99563.92
2022-11-17T17:45:07.028Z,99560.20
2022-11-17T17:47:37.867Z,99554.61
2022-11-17T17:50:10.648Z,99550.90
2022-11-17T17:52:41.769Z,99549.41
2022-11-17T17:55:12.780Z,99555.99
2022-11-17T17:57:43.611Z,99556.31
2022-11-17T18:00:18.114Z,99556.98
2022-11-17T18:02:49.400Z,99555.95
2022-11-17T18:05:23.425Z,99554.91
2022-11-17T18:07:54.503Z,99554.85
2022-11-17T18:10:25.664Z,99553.95
2022-11-17T18:12:58.789Z,99550.75
2022-11-17T18:15:29.650Z,99544.02
2022-11-17T18:18:00.642Z,99542.84
2022-11-17T18:20:32.746Z,99539.47
2022-11-17T18:23:04.620Z,99535.95
2022-11-17T18:25:36.125Z,99537.46
2022-11-17T18:28:07.413Z,99538.29
2022-11-17T18:30:38.395Z,99534.70
2022-11-17T18:33:09.238Z,99532.31
2022-11-17T18:35:40.387Z,99533.46
2022-11-17T18:38:12.240Z,99529.90
2022-11-17T18:40:43.389Z,99527.70
2022-11-17T18:43:14.492Z,99524.32
2022-11-17T18:45:45.302Z,99524.44
2022-11-17T18:48:16.330Z,99526.08
2022-11-17T18:51:17.870Z,99526.20
2022-11-17T18:53:39.444Z,99522.96
2022-11-17T18:56:12.979Z,99526.44
2022-11-17T18:58:44.747Z,99530.08
2022-11-17T19:01:17.595Z,99530.69
2022-11-17T19:03:50.107Z,99523.42
2022-11-17T19:06:22.538Z,99519.33
2022-11-17T19:08:54.713Z,99514.88
2022-11-17T19:11:26.021Z,99518.06
2022-11-17T19:13:57.613Z,99512.84
2022-11-17T19:16:29.482Z,99514.25
2022-11-17T19:19:01.411Z,99515.33
2022-11-17T19:21:33.845Z,99518.38
2022-11-17T19:24:05.606Z,99515.89
2022-11-17T19:26:37.082Z,99514.76
2022-11-17T19:29:16.038Z,99508.44
2022-11-17T19:31:48.839Z,99508.13
2022-11-17T19:34:19.776Z,99507.50
2022-11-17T19:36:50.558Z,99508.36
2022-11-17T19:39:21.404Z,99504.52
2022-11-17T19:41:53.357Z,99505.20
2022-11-17T19:44:24.304Z,99506.55
2022-11-17T19:46:55.702Z,99508.88
2022-11-17T19:49:26.597Z,99507.05
2022-11-17T19:51:57.502Z,99501.48
2022-11-17T19:54:28.587Z,99499.65
2022-11-17T19:56:59.445Z,99496.95
2022-11-17T19:59:30.385Z,99495.27
2022-11-17T20:02:01.180Z,99497.98
2022-11-17T20:04:31.999Z,99503.70
2022-11-17T20:07:04.317Z,99501.20
2022-11-17T20:09:35.264Z,99499.85
2022-11-17T20:12:06.534Z,99502.54
2022-11-17T20:14:38.576Z,99502.05
2022-11-17T20:17:09.354Z,99501.23
2022-11-17T20:19:40.682Z,99502.29
2022-11-17T20:22:13.540Z,99503.62
2022-11-17T20:24:44.924Z,99497.20
2022-11-17T20:27:15.701Z,99495.72
2022-11-17T20:29:46.624Z,99496.90
2022-11-17T20:32:17.815Z,99496.27
2022-11-17T20:34:48.944Z,99496.94
2022-11-17T20:37:20.211Z,99490.04
2022-11-17T20:39:53.565Z,99485.95
2022-11-17T20:42:24.947Z,99479.65
2022-11-17T20:44:56.051Z,99481.58
2022-11-17T20:47:28.767Z,99479.98
2022-11-17T20:50:00.019Z,99475.71
2022-11-17T20:52:31.997Z,99471.17
2022-11-17T20:55:03.938Z,99469.34
2022-11-17T20:57:35.455Z,99468.67
2022-11-17T21:00:08.043Z,99467.01
2022-11-17T21:02:39.279Z,99463.15
2022-11-17T21:05:15.717Z,99462.48
2022-11-17T21:07:47.045Z,99456.75
2022-11-17T21:10:18.795Z,99454.27
2022-11-17T21:12:49.822Z,99445.36
2022-11-17T21:15:21.201Z,99441.68
2022-11-17T21:18:10.677Z,99443.86
2022-11-17T21:20:46.106Z,99442.33
2022-11-17T21:23:17.248Z,99438.77
2022-11-17T21:25:48.357Z,99439.62
2022-11-17T21:28:19.853Z,99438.95
2022-11-17T21:30:51.336Z,99432.02
2022-11-17T21:33:22.350Z,99429.98
2022-11-17T21:35:53.663Z,99426.57
2022-11-17T21:38:25.361Z,99428.55
2022-11-17T21:41:02.125Z,99430.06
2022-11-17T21:43:33.907Z,99427.70
2022-11-17T21:46:07.210Z,99429.89
2022-11-17T21:48:39.401Z,99430.74
2022-11-17T21:51:18.193Z,99427.54
2022-11-17T21:53:53.270Z,99423.67
2022-11-17T21:56:27.021Z,99422.66
2022-11-17T21:59:03.247Z,99420.16
2022-11-17T22:01:35.861Z,99414.77
2022-11-17T22:04:07.370Z,99411.59
2022-11-17T22:06:40.589Z,99411.75
2022-11-17T22:09:15.805Z,99415.00
2022-11-17T22:11:47.464Z,99424.27
2022-11-17T22:14:21.121Z,99425.30
2022-11-17T22:16:55.080Z,99424.15
2022-11-17T22:19:28.365Z,99417.08
2022-11-17T22:21:59.690Z,99414.58
2022-11-17T22:24:30.612Z,99412.54
2022-11-17T22:27:02.720Z,99410.99
2022-11-17T22:29:34.137Z,99413.35
2022-11-17T22:32:05.464Z,99411.80
2022-11-17T22:34:36.945Z,99416.35
2022-11-17T22:37:07.875Z,99413.48
2022-11-17T22:39:39.459Z,99413.28
2022-11-17T22:42:10.481Z,99404.84
2022-11-17T22:44:41.820Z,99400.77
2022-11-17T22:47:12.949Z,99398.73
2022-11-17T22:49:44.305Z,99398.88
2022-11-17T22:52:15.656Z,99401.89
2022-11-17T22:54:47.131Z,99403.39
2022-11-17T22:57:18.419Z,99403.19
2022-11-17T22:59:49.649Z,99402.67
2022-11-17T23:02:20.591Z,99401.13
2022-11-17T23:04:53.748Z,99399.08
2022-11-17T23:07:24.725Z,99400.77
2022-11-17T23:09:55.837Z,99400.92
2022-11-17T23:12:27.095Z,99403.10
2022-11-17T23:14:58.188Z,99405.30
2022-11-17T23:17:29.192Z,99410.36
2022-11-17T23:20:00.333Z,99415.04
2022-11-17T23:22:31.205Z,99413.33
2022-11-17T23:25:08.257Z,99413.95
2022-11-17T23:27:39.378Z,99413.08
2022-11-17T23:30:13.184Z,99414.09
2022-11-17T23:32:44.042Z,99411.40
2022-11-17T23:35:15.107Z,99405.32
2022-11-17T23:37:46.211Z,99402.77
2022-11-17T23:40:18.699Z,99399.25
2022-11-17T23:42:49.676Z,99399.29
2022-11-17T23:45:20.980Z,99394.11
2022-11-17T23:47:51.900Z,99390.80
2022-11-17T23:50:22.859Z,99387.63
2022-11-17T23:52:53.814Z,99382.42
2022-11-17T23:55:24.776Z,99384.92
2022-11-17T23:57:55.762Z,99388.14
